sensor_id;sensor_type;location;lat;lon;timestamp;P1;durP1;ratioP1;P2;durP2;ratioP2
14708;SDS011;7445;50.774;4.944;2022-09-09T06:45:25;10.60;;;3.60;;
14708;SDS011;7445;50.774;4.944;2022-09-09T06:47:54;6.23;;;3.97;;
14708;SDS011;7445;50.774;4.944;2022-09-09T06:50:21;8.90;;;4.20;;
14708;SDS011;7445;50.774;4.944;2022-09-09T06:52:48;11.40;;;3.97;;
14708;SDS011;7445;50.774;4.944;2022-09-09T06:55:14;6.13;;;3.17;;
14708;SDS011;7445;50.774;4.944;2022-09-09T06:57:48;6.70;;;3.47;;
14708;SDS011;7445;50.774;4.944;2022-09-09T07:00:14;8.07;;;2.40;;
14708;SDS011;7445;50.774;4.944;2022-09-09T07:02:43;4.27;;;2.77;;
14708;SDS011;7445;50.774;4.944;2022-09-09T07:05:11;8.30;;;3.30;;
14708;SDS011;7445;50.774;4.944;2022-09-09T07:07:38;6.93;;;2.53;;
14708;SDS011;7445;50.774;4.944;2022-09-09T07:10:04;4.07;;;2.60;;
14708;SDS011;7445;50.774;4.944;2022-09-09T07:12:30;14.43;;;4.07;;
14708;SDS011;7445;50.774;4.944;2022-09-09T07:14:56;8.63;;;2.47;;
14708;SDS011;7445;50.774;4.944;2022-09-09T07:17:22;7.03;;;3.27;;
14708;SDS011;7445;50.774;4.944;2022-09-09T07:19:48;11.43;;;3.37;;
14708;SDS011;7445;50.774;4.944;2022-09-09T07:22:16;8.77;;;2.87;;
14708;SDS011;7445;50.774;4.944;2022-09-09T07:24:48;6.47;;;2.50;;
14708;SDS011;7445;50.774;4.944;2022-09-09T07:27:14;6.47;;;3.33;;
14708;SDS011;7445;50.774;4.944;2022-09-09T07:29:43;9.03;;;3.43;;
14708;SDS011;7445;50.774;4.944;2022-09-09T07:32:38;6.97;;;3.30;;
14708;SDS011;7445;50.774;4.944;2022-09-09T07:35:05;7.93;;;3.13;;
14708;SDS011;7445;50.774;4.944;2022-09-09T07:37:35;6.27;;;2.93;;
14708;SDS011;7445;50.774;4.944;2022-09-09T07:40:18;7.57;;;3.30;;
14708;SDS011;7445;50.774;4.944;2022-09-09T07:42:54;11.10;;;3.67;;
14708;SDS011;7445;50.774;4.944;2022-09-09T07:45:28;6.93;;;2.70;;
14708;SDS011;7445;50.774;4.944;2022-09-09T07:47:57;6.53;;;3.10;;
14708;SDS011;7445;50.774;4.944;2022-09-09T07:50:23;6.77;;;2.90;;
14708;SDS011;7445;50.774;4.944;2022-09-09T07:52:49;7.70;;;2.63;;
14708;SDS011;7445;50.774;4.944;2022-09-09T07:55:19;7.60;;;2.90;;
14708;SDS011;7445;50.774;4.944;2022-09-09T07:57:48;5.73;;;3.23;;
14708;SDS011;7445;50.774;4.944;2022-09-09T08:00:24;6.37;;;2.80;;
14708;SDS011;7445;50.774;4.944;2022-09-09T08:02:50;5.03;;;2.30;;
14708;SDS011;7445;50.774;4.944;2022-09-09T08:05:16;5.33;;;3.27;;
14708;SDS011;7445;50.774;4.944;2022-09-09T08:07:43;7.40;;;3.10;;
14708;SDS011;7445;50.774;4.944;2022-09-09T08:10:09;10.37;;;3.37;;
14708;SDS011;7445;50.774;4.944;2022-09-09T08:15:04;7.27;;;3.10;;
14708;SDS011;7445;50.774;4.944;2022-09-09T08:17:30;4.40;;;2.63;;
14708;SDS011;7445;50.774;4.944;2022-09-09T08:19:58;12.03;;;3.30;;
14708;SDS011;7445;50.774;4.944;2022-09-09T08:22:29;7.47;;;2.67;;
14708;SDS011;7445;50.774;4.944;2022-09-09T08:24:54;8.00;;;3.37;;
14708;SDS011;7445;50.774;4.944;2022-09-09T08:27:21;4.73;;;2.00;;
14708;SDS011;7445;50.774;4.944;2022-09-09T08:29:47;8.00;;;2.90;;
14708;SDS011;7445;50.774;4.944;2022-09-09T08:32:13;8.73;;;3.27;;
14708;SDS011;7445;50.774;4.944;2022-09-09T08:34:38;5.20;;;2.90;;
14708;SDS011;7445;50.774;4.944;2022-09-09T08:37:06;6.00;;;2.40;;
14708;SDS011;7445;50.774;4.944;2022-09-09T08:39:31;6.17;;;2.57;;
14708;SDS011;7445;50.774;4.944;2022-09-09T08:42:15;7.83;;;3.00;;
14708;SDS011;7445;50.774;4.944;2022-09-09T08:44:53;8.30;;;3.23;;
14708;SDS011;7445;50.774;4.944;2022-09-09T08:50:29;5.60;;;2.63;;
14708;SDS011;7445;50.774;4.944;2022-09-09T08:53:26;6.53;;;2.00;;
14708;SDS011;7445;50.774;4.944;2022-09-09T08:56:02;7.70;;;3.20;;
14708;SDS011;7445;50.774;4.944;2022-09-09T08:58:50;5.17;;;2.57;;
14708;SDS011;7445;50.774;4.944;2022-09-09T09:03:52;4.43;;;2.30;;
14708;SDS011;7445;50.774;4.944;2022-09-09T09:11:40;7.07;;;2.23;;
14708;SDS011;7445;50.774;4.944;2022-09-09T09:14:25;5.43;;;3.23;;
14708;SDS011;7445;50.774;4.944;2022-09-09T09:17:06;5.57;;;2.30;;
14708;SDS011;7445;50.774;4.944;2022-09-09T09:19:39;3.63;;;2.17;;
14708;SDS011;7445;50.774;4.944;2022-09-09T09:22:09;3.67;;;2.30;;
14708;SDS011;7445;50.774;4.944;2022-09-09T09:27:35;9.27;;;2.50;;
14708;SDS011;7445;50.774;4.944;2022-09-09T09:30:19;6.30;;;2.63;;
14708;SDS011;7445;50.774;4.944;2022-09-09T09:32:56;8.20;;;2.67;;
14708;SDS011;7445;50.774;4.944;2022-09-09T09:35:26;4.50;;;2.37;;
14708;SDS011;7445;50.774;4.944;2022-09-09T09:37:52;6.40;;;2.23;;
14708;SDS011;7445;50.774;4.944;2022-09-09T09:40:19;6.23;;;1.97;;
14708;SDS011;7445;50.774;4.944;2022-09-09T09:43:00;8.23;;;2.57;;
14708;SDS011;7445;50.774;4.944;2022-09-09T09:48:23;7.00;;;3.40;;
14708;SDS011;7445;50.774;4.944;2022-09-09T09:50:51;4.17;;;2.40;;
14708;SDS011;7445;50.774;4.944;2022-09-09T09:53:24;8.67;;;3.53;;
14708;SDS011;7445;50.774;4.944;2022-09-09T09:55:58;9.80;;;3.67;;
14708;SDS011;7445;50.774;4.944;2022-09-09T09:58:32;8.83;;;2.47;;
14708;SDS011;7445;50.774;4.944;2022-09-09T10:01:39;7.53;;;3.20;;
14708;SDS011;7445;50.774;4.944;2022-09-09T10:04:17;3.13;;;2.80;;
14708;SDS011;7445;50.774;4.944;2022-09-09T10:07:09;7.27;;;4.03;;
14708;SDS011;7445;50.774;4.944;2022-09-09T10:10:17;9.77;;;3.53;;
14708;SDS011;7445;50.774;4.944;2022-09-09T10:12:57;6.63;;;3.60;;
14708;SDS011;7445;50.774;4.944;2022-09-09T10:35:58;7.40;;;3.47;;
14708;SDS011;7445;50.774;4.944;2022-09-09T10:38:42;8.13;;;4.40;;
14708;SDS011;7445;50.774;4.944;2022-09-09T10:41:31;8.20;;;4.23;;
14708;SDS011;7445;50.774;4.944;2022-09-09T10:57:50;6.87;;;3.43;;
14708;SDS011;7445;50.774;4.944;2022-09-09T11:00:37;8.30;;;4.77;;
14708;SDS011;7445;50.774;4.944;2022-09-09T11:03:09;6.87;;;3.90;;
14708;SDS011;7445;50.774;4.944;2022-09-09T11:05:50;5.67;;;3.87;;
14708;SDS011;7445;50.774;4.944;2022-09-09T11:08:21;8.33;;;3.03;;
14708;SDS011;7445;50.774;4.944;2022-09-09T11:13:49;10.13;;;4.27;;
14708;SDS011;7445;50.774;4.944;2022-09-09T11:19:14;7.27;;;3.17;;
14708;SDS011;7445;50.774;4.944;2022-09-09T11:22:47;6.23;;;3.83;;
14708;SDS011;7445;50.774;4.944;2022-09-09T11:25:01;7.13;;;3.63;;
14708;SDS011;7445;50.774;4.944;2022-09-09T11:35:43;8.47;;;3.27;;
14708;SDS011;7445;50.774;4.944;2022-09-09T11:38:29;4.07;;;2.23;;
14708;SDS011;7445;50.774;4.944;2022-09-09T11:41:16;9.00;;;3.53;;
14708;SDS011;7445;50.774;4.944;2022-09-09T11:43:49;7.33;;;3.10;;
14708;SDS011;7445;50.774;4.944;2022-09-09T11:46:17;5.53;;;2.37;;
14708;SDS011;7445;50.774;4.944;2022-09-09T11:49:01;4.40;;;3.07;;
14708;SDS011;7445;50.774;4.944;2022-09-09T11:51:29;4.03;;;2.17;;
14708;SDS011;7445;50.774;4.944;2022-09-09T11:59:01;4.83;;;2.40;;
14708;SDS011;7445;50.774;4.944;2022-09-09T12:04:14;4.20;;;2.73;;
14708;SDS011;7445;50.774;4.944;2022-09-09T12:11:44;3.40;;;2.50;;
14708;SDS011;7445;50.774;4.944;2022-09-09T12:14:19;12.27;;;3.67;;
14708;SDS011;7445;50.774;4.944;2022-09-09T12:17:25;3.97;;;2.70;;
14708;SDS011;7445;50.774;4.944;2022-09-09T12:20:37;7.17;;;2.53;;
14708;SDS011;7445;50.774;4.944;2022-09-09T12:34:15;3.77;;;2.40;;
14708;SDS011;7445;50.774;4.944;2022-09-09T12:39:57;6.77;;;2.83;;
14708;SDS011;7445;50.774;4.944;2022-09-09T12:42:24;4.10;;;2.50;;
14708;SDS011;7445;50.774;4.944;2022-09-09T12:44:55;7.57;;;3.60;;
14708;SDS011;7445;50.774;4.944;2022-09-09T12:47:36;5.33;;;4.30;;
14708;SDS011;7445;50.774;4.944;2022-09-09T12:50:29;4.57;;;2.70;;
14708;SDS011;7445;50.774;4.944;2022-09-09T12:53:20;7.43;;;3.97;;
14708;SDS011;7445;50.774;4.944;2022-09-09T12:55:52;5.70;;;3.00;;
14708;SDS011;7445;50.774;4.944;2022-09-09T12:58:20;6.13;;;2.20;;
14708;SDS011;7445;50.774;4.944;2022-09-09T13:00:50;4.37;;;2.03;;
14708;SDS011;7445;50.774;4.944;2022-09-09T13:03:18;4.80;;;2.47;;
14708;SDS011;7445;50.774;4.944;2022-09-09T13:05:46;9.70;;;3.13;;
14708;SDS011;7445;50.774;4.944;2022-09-09T13:08:12;4.93;;;3.00;;
14708;SDS011;7445;50.774;4.944;2022-09-09T13:13:19;3.93;;;2.10;;
14708;SDS011;7445;50.774;4.944;2022-09-09T13:15:58;6.60;;;2.87;;
14708;SDS011;7445;50.774;4.944;2022-09-09T13:18:30;5.30;;;2.97;;
14708;SDS011;7445;50.774;4.944;2022-09-09T13:20:59;3.10;;;2.13;;
14708;SDS011;7445;50.774;4.944;2022-09-09T13:23:35;3.37;;;2.83;;
14708;SDS011;7445;50.774;4.944;2022-09-09T13:26:53;4.63;;;2.30;;
14708;SDS011;7445;50.774;4.944;2022-09-09T13:28:54;4.07;;;1.93;;
14708;SDS011;7445;50.774;4.944;2022-09-09T13:31:33;5.70;;;3.20;;
14708;SDS011;7445;50.774;4.944;2022-09-09T13:34:11;4.70;;;2.37;;
14708;SDS011;7445;50.774;4.944;2022-09-09T13:37:09;6.10;;;3.33;;
14708;SDS011;7445;50.774;4.944;2022-09-09T13:39:51;5.03;;;2.07;;
14708;SDS011;7445;50.774;4.944;2022-09-09T13:42:22;4.30;;;2.37;;
14708;SDS011;7445;50.774;4.944;2022-09-09T13:44:53;3.10;;;1.90;;
14708;SDS011;7445;50.774;4.944;2022-09-09T13:47:36;4.10;;;2.37;;
14708;SDS011;7445;50.774;4.944;2022-09-09T13:53:06;4.60;;;2.17;;
14708;SDS011;7445;50.774;4.944;2022-09-09T13:55:32;3.43;;;2.00;;
14708;SDS011;7445;50.774;4.944;2022-09-09T13:58:03;5.33;;;1.40;;
14708;SDS011;7445;50.774;4.944;2022-09-09T14:00:31;4.13;;;1.27;;
14708;SDS011;7445;50.774;4.944;2022-09-09T14:02:58;2.67;;;1.50;;
14708;SDS011;7445;50.774;4.944;2022-09-09T14:05:27;3.07;;;1.63;;
14708;SDS011;7445;50.774;4.944;2022-09-09T14:07:54;5.23;;;1.57;;
14708;SDS011;7445;50.774;4.944;2022-09-09T14:10:20;2.40;;;1.90;;
14708;SDS011;7445;50.774;4.944;2022-09-09T14:12:47;2.33;;;1.80;;
14708;SDS011;7445;50.774;4.944;2022-09-09T14:15:12;4.83;;;2.17;;
14708;SDS011;7445;50.774;4.944;2022-09-09T14:17:39;4.23;;;1.87;;
14708;SDS011;7445;50.774;4.944;2022-09-09T14:20:08;2.33;;;1.70;;
14708;SDS011;7445;50.774;4.944;2022-09-09T14:22:36;3.57;;;1.70;;
14708;SDS011;7445;50.774;4.944;2022-09-09T14:25:07;4.00;;;1.83;;
14708;SDS011;7445;50.774;4.944;2022-09-09T14:27:34;4.77;;;2.43;;
14708;SDS011;7445;50.774;4.944;2022-09-09T14:30:23;2.43;;;1.70;;
14708;SDS011;7445;50.774;4.944;2022-09-09T14:32:49;3.10;;;1.87;;
14708;SDS011;7445;50.774;4.944;2022-09-09T14:35:14;3.90;;;2.00;;
14708;SDS011;7445;50.774;4.944;2022-09-09T14:37:43;2.90;;;2.37;;
14708;SDS011;7445;50.774;4.944;2022-09-09T14:40:10;5.13;;;2.10;;
14708;SDS011;7445;50.774;4.944;2022-09-09T14:42:36;2.10;;;1.90;;
14708;SDS011;7445;50.774;4.944;2022-09-09T14:45:03;3.33;;;1.90;;
14708;SDS011;7445;50.774;4.944;2022-09-09T14:47:31;3.73;;;2.30;;
14708;SDS011;7445;50.774;4.944;2022-09-09T14:49:57;3.67;;;1.63;;
14708;SDS011;7445;50.774;4.944;2022-09-09T14:52:22;3.53;;;2.47;;
14708;SDS011;7445;50.774;4.944;2022-09-09T14:54:48;3.53;;;2.53;;
14708;SDS011;7445;50.774;4.944;2022-09-09T14:57:14;9.43;;;3.47;;
14708;SDS011;7445;50.774;4.944;2022-09-09T14:59:42;7.63;;;2.03;;
14708;SDS011;7445;50.774;4.944;2022-09-09T15:02:09;7.10;;;2.57;;
14708;SDS011;7445;50.774;4.944;2022-09-09T15:04:35;5.00;;;2.45;;
14708;SDS011;7445;50.774;4.944;2022-09-09T15:07:00;2.47;;;2.27;;
14708;SDS011;7445;50.774;4.944;2022-09-09T15:09:31;2.77;;;1.30;;
14708;SDS011;7445;50.774;4.944;2022-09-09T15:11:58;3.72;;;2.42;;
14708;SDS011;7445;50.774;4.944;2022-09-09T15:14:23;2.37;;;1.87;;
14708;SDS011;7445;50.774;4.944;2022-09-09T15:16:52;3.70;;;1.87;;
14708;SDS011;7445;50.774;4.944;2022-09-09T15:19:17;1.97;;;1.20;;
14708;SDS011;7445;50.774;4.944;2022-09-09T15:21:43;4.73;;;1.43;;
14708;SDS011;7445;50.774;4.944;2022-09-09T15:24:09;2.87;;;1.63;;
14708;SDS011;7445;50.774;4.944;2022-09-09T15:26:37;3.40;;;1.57;;
14708;SDS011;7445;50.774;4.944;2022-09-09T15:29:03;7.10;;;3.07;;
14708;SDS011;7445;50.774;4.944;2022-09-09T15:31:30;5.27;;;2.83;;
14708;SDS011;7445;50.774;4.944;2022-09-09T15:33:57;4.20;;;2.30;;
14708;SDS011;7445;50.774;4.944;2022-09-09T15:36:30;4.93;;;1.93;;
14708;SDS011;7445;50.774;4.944;2022-09-09T15:38:59;4.03;;;2.13;;
14708;SDS011;7445;50.774;4.944;2022-09-09T15:41:26;3.83;;;1.50;;
14708;SDS011;7445;50.774;4.944;2022-09-09T15:43:53;3.40;;;1.53;;
14708;SDS011;7445;50.774;4.944;2022-09-09T15:46:28;4.73;;;2.20;;
14708;SDS011;7445;50.774;4.944;2022-09-09T15:48:58;2.73;;;1.53;;
14708;SDS011;7445;50.774;4.944;2022-09-09T15:51:31;3.50;;;2.00;;
14708;SDS011;7445;50.774;4.944;2022-09-09T15:53:58;4.07;;;1.77;;
14708;SDS011;7445;50.774;4.944;2022-09-09T15:56:29;3.70;;;1.47;;
14708;SDS011;7445;50.774;4.944;2022-09-09T15:58:58;3.77;;;2.10;;
14708;SDS011;7445;50.774;4.944;2022-09-09T16:01:31;4.73;;;1.40;;
14708;SDS011;7445;50.774;4.944;2022-09-09T16:04:01;5.83;;;1.40;;
14708;SDS011;7445;50.774;4.944;2022-09-09T16:06:28;3.47;;;1.40;;
14708;SDS011;7445;50.774;4.944;2022-09-09T16:08:55;1.80;;;1.10;;
14708;SDS011;7445;50.774;4.944;2022-09-09T16:11:29;2.57;;;1.83;;
14708;SDS011;7445;50.774;4.944;2022-09-09T16:14:01;3.83;;;1.53;;
14708;SDS011;7445;50.774;4.944;2022-09-09T16:16:29;5.60;;;1.77;;
14708;SDS011;7445;50.774;4.944;2022-09-09T16:19:00;4.43;;;1.60;;
14708;SDS011;7445;50.774;4.944;2022-09-09T16:21:32;5.27;;;2.20;;
14708;SDS011;7445;50.774;4.944;2022-09-09T16:24:03;7.57;;;3.17;;
14708;SDS011;7445;50.774;4.944;2022-09-09T16:26:31;9.00;;;3.00;;
14708;SDS011;7445;50.774;4.944;2022-09-09T16:28:59;1.20;;;0.97;;
14708;SDS011;7445;50.774;4.944;2022-09-09T16:31:26;3.50;;;1.80;;
14708;SDS011;7445;50.774;4.944;2022-09-09T16:33:55;3.10;;;1.70;;
14708;SDS011;7445;50.774;4.944;2022-09-09T16:36:29;5.27;;;1.40;;
14708;SDS011;7445;50.774;4.944;2022-09-09T16:39:02;21.27;;;3.80;;
14708;SDS011;7445;50.774;4.944;2022-09-09T16:41:30;7.43;;;1.97;;
14708;SDS011;7445;50.774;4.944;2022-09-09T16:44:12;10.90;;;1.77;;
14708;SDS011;7445;50.774;4.944;2022-09-09T16:46:47;3.63;;;1.30;;
14708;SDS011;7445;50.774;4.944;2022-09-09T16:51:49;2.50;;;1.43;;
14708;SDS011;7445;50.774;4.944;2022-09-09T16:54:30;5.10;;;1.07;;
14708;SDS011;7445;50.774;4.944;2022-09-09T16:57:00;3.17;;;1.63;;
14708;SDS011;7445;50.774;4.944;2022-09-09T16:59:25;3.80;;;1.90;;
14708;SDS011;7445;50.774;4.944;2022-09-09T17:04:58;4.57;;;2.07;;
14708;SDS011;7445;50.774;4.944;2022-09-09T17:07:40;4.37;;;1.70;;
14708;SDS011;7445;50.774;4.944;2022-09-09T17:10:18;2.03;;;1.30;;
14708;SDS011;7445;50.774;4.944;2022-09-09T17:12:49;6.50;;;3.73;;
14708;SDS011;7445;50.774;4.944;2022-09-09T17:15:15;6.53;;;3.70;;
14708;SDS011;7445;50.774;4.944;2022-09-09T17:17:43;3.63;;;2.10;;
14708;SDS011;7445;50.774;4.944;2022-09-09T17:20:10;2.60;;;1.70;;
14708;SDS011;7445;50.774;4.944;2022-09-09T17:22:36;5.37;;;1.97;;
14708;SDS011;7445;50.774;4.944;2022-09-09T17:25:03;6.07;;;1.53;;
14708;SDS011;7445;50.774;4.944;2022-09-09T17:27:29;6.17;;;1.77;;
14708;SDS011;7445;50.774;4.944;2022-09-09T17:29:59;3.07;;;1.93;;
14708;SDS011;7445;50.774;4.944;2022-09-09T17:32:32;3.77;;;1.63;;
14708;SDS011;7445;50.774;4.944;2022-09-09T17:35:01;4.03;;;1.63;;
14708;SDS011;7445;50.774;4.944;2022-09-09T17:37:33;2.97;;;1.77;;
14708;SDS011;7445;50.774;4.944;2022-09-09T17:40:23;3.97;;;1.63;;
14708;SDS011;7445;50.774;4.944;2022-09-09T17:42:49;4.07;;;2.03;;
14708;SDS011;7445;50.774;4.944;2022-09-09T17:45:16;6.57;;;1.67;;
14708;SDS011;7445;50.774;4.944;2022-09-09T17:47:55;59.83;;;7.53;;
14708;SDS011;7445;50.774;4.944;2022-09-09T17:50:22;23.97;;;4.77;;
14708;SDS011;7445;50.774;4.944;2022-09-09T17:52:58;5.37;;;1.77;;
14708;SDS011;7445;50.774;4.944;2022-09-09T17:55:26;5.33;;;2.07;;
14708;SDS011;7445;50.774;4.944;2022-09-09T17:57:53;5.30;;;1.57;;
14708;SDS011;7445;50.774;4.944;2022-09-09T18:00:21;2.63;;;1.70;;
14708;SDS011;7445;50.774;4.944;2022-09-09T18:03:02;3.87;;;1.37;;
14708;SDS011;7445;50.774;4.944;2022-09-09T18:05:35;3.50;;;1.70;;
14708;SDS011;7445;50.774;4.944;2022-09-09T18:08:02;1.57;;;1.30;;
14708;SDS011;7445;50.774;4.944;2022-09-09T18:10:31;3.13;;;1.90;;
14708;SDS011;7445;50.774;4.944;2022-09-09T18:12:58;6.37;;;2.10;;
14708;SDS011;7445;50.774;4.944;2022-09-09T18:15:26;7.07;;;2.23;;
14708;SDS011;7445;50.774;4.944;2022-09-09T18:18:00;5.50;;;1.87;;
14708;SDS011;7445;50.774;4.944;2022-09-09T18:20:30;5.33;;;1.83;;
14708;SDS011;7445;50.774;4.944;2022-09-09T18:23:05;8.27;;;2.63;;
14708;SDS011;7445;50.774;4.944;2022-09-09T18:25:39;3.87;;;2.10;;
14708;SDS011;7445;50.774;4.944;2022-09-09T18:28:28;5.57;;;2.47;;
14708;SDS011;7445;50.774;4.944;2022-09-09T18:31:07;5.83;;;1.67;;
14708;SDS011;7445;50.774;4.944;2022-09-09T18:33:45;4.27;;;1.80;;
14708;SDS011;7445;50.774;4.944;2022-09-09T18:36:16;6.17;;;2.00;;
14708;SDS011;7445;50.774;4.944;2022-09-09T18:38:45;3.07;;;1.73;;
14708;SDS011;7445;50.774;4.944;2022-09-09T18:41:31;3.10;;;1.47;;
14708;SDS011;7445;50.774;4.944;2022-09-09T18:44:22;5.73;;;2.03;;
14708;SDS011;7445;50.774;4.944;2022-09-09T18:46:51;4.30;;;2.27;;
14708;SDS011;7445;50.774;4.944;2022-09-09T18:49:22;1.97;;;1.73;;
14708;SDS011;7445;50.774;4.944;2022-09-09T18:51:55;3.93;;;2.50;;
14708;SDS011;7445;50.774;4.944;2022-09-09T18:57:20;7.07;;;2.20;;
14708;SDS011;7445;50.774;4.944;2022-09-09T18:59:50;4.13;;;1.90;;
14708;SDS011;7445;50.774;4.944;2022-09-09T19:02:20;5.83;;;2.30;;
14708;SDS011;7445;50.774;4.944;2022-09-09T19:04:52;5.50;;;2.07;;
14708;SDS011;7445;50.774;4.944;2022-09-09T19:07:40;8.63;;;2.20;;
14708;SDS011;7445;50.774;4.944;2022-09-09T19:10:10;4.43;;;1.80;;
14708;SDS011;7445;50.774;4.944;2022-09-09T19:12:39;3.90;;;1.90;;
14708;SDS011;7445;50.774;4.944;2022-09-09T19:15:10;8.07;;;2.47;;
14708;SDS011;7445;50.774;4.944;2022-09-09T19:17:37;10.43;;;2.80;;
14708;SDS011;7445;50.774;4.944;2022-09-09T19:20:07;6.30;;;2.33;;
14708;SDS011;7445;50.774;4.944;2022-09-09T19:22:35;6.53;;;2.67;;
14708;SDS011;7445;50.774;4.944;2022-09-09T19:25:04;5.23;;;2.00;;
14708;SDS011;7445;50.774;4.944;2022-09-09T19:27:40;5.43;;;2.00;;
14708;SDS011;7445;50.774;4.944;2022-09-09T19:30:07;5.50;;;2.30;;
14708;SDS011;7445;50.774;4.944;2022-09-09T19:32:35;5.70;;;2.50;;
14708;SDS011;7445;50.774;4.944;2022-09-09T19:35:07;6.27;;;2.90;;
14708;SDS011;7445;50.774;4.944;2022-09-09T19:37:38;4.33;;;2.10;;
14708;SDS011;7445;50.774;4.944;2022-09-09T19:40:06;9.80;;;3.33;;
14708;SDS011;7445;50.774;4.944;2022-09-09T19:42:32;5.37;;;2.57;;
14708;SDS011;7445;50.774;4.944;2022-09-09T19:44:59;6.23;;;2.20;;
14708;SDS011;7445;50.774;4.944;2022-09-09T19:47:25;9.57;;;3.87;;
14708;SDS011;7445;50.774;4.944;2022-09-09T19:50:03;4.10;;;2.40;;
14708;SDS011;7445;50.774;4.944;2022-09-09T19:52:35;7.93;;;3.30;;
14708;SDS011;7445;50.774;4.944;2022-09-09T19:55:08;7.37;;;3.60;;
14708;SDS011;7445;50.774;4.944;2022-09-09T19:57:38;3.90;;;2.47;;
14708;SDS011;7445;50.774;4.944;2022-09-09T20:00:04;4.60;;;1.70;;
14708;SDS011;7445;50.774;4.944;2022-09-09T20:02:34;4.73;;;1.77;;
14708;SDS011;7445;50.774;4.944;2022-09-09T20:05:09;4.53;;;1.53;;
14708;SDS011;7445;50.774;4.944;2022-09-09T20:10:14;3.13;;;1.20;;
14708;SDS011;7445;50.774;4.944;2022-09-09T20:12:54;2.60;;;1.13;;
14708;SDS011;7445;50.774;4.944;2022-09-09T20:15:25;3.50;;;1.00;;
14708;SDS011;7445;50.774;4.944;2022-09-09T20:18:54;3.70;;;1.20;;
14708;SDS011;7445;50.774;4.944;2022-09-09T20:21:31;2.40;;;1.07;;
14708;SDS011;7445;50.774;4.944;2022-09-09T20:24:06;2.63;;;1.30;;
14708;SDS011;7445;50.774;4.944;2022-09-09T20:26:35;2.20;;;1.27;;
14708;SDS011;7445;50.774;4.944;2022-09-09T20:29:05;3.50;;;1.10;;
14708;SDS011;7445;50.774;4.944;2022-09-09T20:31:34;4.73;;;1.63;;
14708;SDS011;7445;50.774;4.944;2022-09-09T20:34:08;2.80;;;1.10;;
14708;SDS011;7445;50.774;4.944;2022-09-09T20:36:41;1.23;;;0.60;;
14708;SDS011;7445;50.774;4.944;2022-09-09T20:39:08;3.60;;;1.10;;
14708;SDS011;7445;50.774;4.944;2022-09-09T20:41:43;7.43;;;1.20;;
14708;SDS011;7445;50.774;4.944;2022-09-09T20:44:12;3.20;;;0.90;;
14708;SDS011;7445;50.774;4.944;2022-09-09T20:46:47;3.03;;;1.30;;
14708;SDS011;7445;50.774;4.944;2022-09-09T20:49:18;1.37;;;0.77;;
14708;SDS011;7445;50.774;4.944;2022-09-09T20:51:46;2.33;;;1.23;;
14708;SDS011;7445;50.774;4.944;2022-09-09T20:54:15;2.80;;;1.10;;
14708;SDS011;7445;50.774;4.944;2022-09-09T20:56:43;2.10;;;0.80;;
14708;SDS011;7445;50.774;4.944;2022-09-09T20:59:10;2.00;;;0.97;;
14708;SDS011;7445;50.774;4.944;2022-09-09T21:01:38;1.70;;;0.80;;
14708;SDS011;7445;50.774;4.944;2022-09-09T21:04:07;2.00;;;1.07;;
14708;SDS011;7445;50.774;4.944;2022-09-09T21:06:34;2.83;;;1.23;;
14708;SDS011;7445;50.774;4.944;2022-09-09T21:09:02;5.80;;;1.50;;
14708;SDS011;7445;50.774;4.944;2022-09-09T21:11:41;7.87;;;1.80;;
14708;SDS011;7445;50.774;4.944;2022-09-09T21:14:37;3.60;;;1.50;;
14708;SDS011;7445;50.774;4.944;2022-09-09T21:17:10;2.27;;;1.20;;
14708;SDS011;7445;50.774;4.944;2022-09-09T21:19:52;4.77;;;1.60;;
14708;SDS011;7445;50.774;4.944;2022-09-09T21:23:05;2.43;;;1.37;;
14708;SDS011;7445;50.774;4.944;2022-09-09T21:26:02;2.73;;;1.27;;
14708;SDS011;7445;50.774;4.944;2022-09-09T21:28:56;3.13;;;1.40;;
14708;SDS011;7445;50.774;4.944;2022-09-09T21:45:27;3.13;;;1.70;;
14708;SDS011;7445;50.774;4.944;2022-09-09T23:23:37;7.60;;;4.17;;
14708;SDS011;7445;50.774;4.944;2022-09-09T23:26:05;6.93;;;4.57;;
14708;SDS011;7445;50.774;4.944;2022-09-09T23:28:33;6.37;;;4.40;;
14708;SDS011;7445;50.774;4.944;2022-09-09T23:31:10;9.30;;;4.90;;
14708;SDS011;7445;50.774;4.944;2022-09-09T23:33:38;8.00;;;3.70;;
14708;SDS011;7445;50.774;4.944;2022-09-09T23:36:06;5.50;;;4.13;;
14708;SDS011;7445;50.774;4.944;2022-09-09T23:38:33;7.33;;;3.83;;
14708;SDS011;7445;50.774;4.944;2022-09-09T23:41:02;9.07;;;4.03;;
14708;SDS011;7445;50.774;4.944;2022-09-09T23:43:28;4.80;;;3.90;;
14708;SDS011;7445;50.774;4.944;2022-09-09T23:45:55;8.07;;;3.80;;
14708;SDS011;7445;50.774;4.944;2022-09-09T23:48:21;10.43;;;4.83;;
14708;SDS011;7445;50.774;4.944;2022-09-09T23:50:49;5.03;;;4.00;;
14708;SDS011;7445;50.774;4.944;2022-09-09T23:53:15;6.13;;;3.83;;
14708;SDS011;7445;50.774;4.944;2022-09-09T23:55:41;10.67;;;3.97;;
14708;SDS011;7445;50.774;4.944;2022-09-09T23:58:07;9.37;;;4.67;;
